Time;durP1;ratioP1;P1;durP2;ratioP2;P2;SDS_P1;SDS_P2;PMS_P1;PMS_P2;Temp;Humidity;BMP_temperature;BMP_pressure;BME280_temperature;BME280_humidity;BME280_pressure;Samples;Min_cycle;Max_cycle;Signal;HPM_P1;HPM_P2
2021/12/09 00:00:13;;;;;;;13.15;3.92;;;6.30;95.80;;;;;;5048555;28;20404;-68
2021/12/09 00:02:40;;;;;;;14.02;3.17;;;6.40;95.60;;;;;;5049491;28;20127;-75
2021/12/09 00:05:09;;;;;;;11.93;2.95;;;6.30;95.60;;;;;;5031369;28;20135;-70
2021/12/09 00:07:37;;;;;;;15.25;3.05;;;6.30;95.80;;;;;;5049052;28;20045;-68
2021/12/09 00:10:07;;;;;;;12.38;3.10;;;6.30;95.50;;;;;;5049410;28;20040;-71
2021/12/09 00:12:34;;;;;;;;;;;6.40;96.00;;;;;;5050143;28;20151;-70
2021/12/09 00:15:01;;;;;;;7.28;2.88;;;6.40;95.60;;;;;;5048844;28;19975;-68
2021/12/09 00:17:28;;;;;;;13.07;3.22;;;6.30;95.90;;;;;;5047267;28;20141;-69
2021/12/09 00:19:55;;;;;;;14.10;2.95;;;6.30;96.00;;;;;;5026288;28;20116;-69
2021/12/09 00:22:25;;;;;;;12.73;3.33;;;6.30;95.90;;;;;;5049595;28;20076;-69
2021/12/09 00:24:52;;;;;;;11.68;3.17;;;6.30;96.10;;;;;;5049589;28;20059;-70
2021/12/09 00:27:20;;;;;;;13.93;4.10;;;6.30;95.80;;;;;;5047937;28;20094;-70
2021/12/09 00:29:47;;;;;;;8.40;3.90;;;6.30;96.10;;;;;;5047421;28;20056;-69
2021/12/09 00:32:14;;;;;;;12.00;2.97;;;6.30;95.60;;;;;;5047483;28;20548;-69
2021/12/09 00:34:44;;;;;;;13.00;3.00;;;6.30;95.90;;;;;;5056030;28;20433;-68
2021/12/09 00:40:13;;;;;;;13.13;3.30;;;6.30;95.90;;;;;;5039818;28;20160;-69
2021/12/09 00:42:40;;;;;;;16.00;3.97;;;6.30;95.80;;;;;;5027404;28;20160;-71
2021/12/09 00:45:07;;;;;;;13.15;3.72;;;6.30;95.80;;;;;;5047620;28;20139;-68
2021/12/09 00:47:34;;;;;;;14.35;3.50;;;6.30;96.20;;;;;;5047857;28;20049;-69
2021/12/09 00:50:02;;;;;;;16.60;4.45;;;6.30;96.50;;;;;;5049391;28;20133;-70
2021/12/09 00:52:29;;;;;;;14.07;3.88;;;6.20;96.00;;;;;;5049711;28;20057;-68
2021/12/09 00:54:56;;;;;;;17.83;3.75;;;6.20;96.20;;;;;;5049366;28;20576;-68
2021/12/09 00:57:23;;;;;;;23.20;6.57;;;6.20;96.50;;;;;;5047308;28;20048;-68
2021/12/09 00:59:50;;;;;;;12.50;4.57;;;6.20;95.80;;;;;;5050619;28;20049;-70
2021/12/09 01:02:17;;;;;;;20.85;4.53;;;6.20;96.10;;;;;;5025394;28;20085;-69
2021/12/09 01:04:45;;;;;;;13.52;3.60;;;6.20;95.80;;;;;;5050752;28;20094;-68
2021/12/09 01:07:12;;;;;;;12.23;3.63;;;6.30;95.60;;;;;;5050914;28;20049;-71
2021/12/09 01:09:39;;;;;;;17.45;4.05;;;6.30;95.90;;;;;;5052354;28;20053;-75
2021/12/09 01:12:07;;;;;;;13.57;4.30;;;6.30;96.20;;;;;;5052865;28;20040;-71
2021/12/09 01:14:37;;;;;;;14.93;4.18;;;6.30;95.80;;;;;;5051146;28;20052;-70
2021/12/09 01:17:08;;;;;;;;;;;6.20;95.90;;;;;;5051677;28;20041;-69
2021/12/09 01:19:36;;;;;;;16.63;4.20;;;6.30;96.00;;;;;;5050907;28;20103;-71
2021/12/09 01:22:03;;;;;;;11.25;3.55;;;6.30;95.70;;;;;;5051230;28;20071;-71
2021/12/09 01:24:30;;;;;;;13.45;3.97;;;6.30;95.90;;;;;;5052178;28;20088;-69
2021/12/09 01:26:58;;;;;;;13.00;3.97;;;6.30;95.60;;;;;;5051069;28;20041;-70
2021/12/09 01:29:39;;;;;;;18.85;4.57;;;6.30;96.00;;;;;;5049684;28;20473;-70
2021/12/09 01:32:08;;;;;;;9.18;3.67;;;6.30;95.10;;;;;;5033538;28;20073;-71
2021/12/09 01:34:36;;;;;;;15.90;3.40;;;6.30;94.90;;;;;;5050189;28;20044;-70
2021/12/09 01:37:04;;;;;;;10.23;3.67;;;6.30;95.10;;;;;;5048944;28;20094;-70
2021/12/09 01:39:31;;;;;;;13.13;2.88;;;6.30;95.20;;;;;;5052646;28;20077;-70
2021/12/09 01:41:59;;;;;;;12.27;3.78;;;6.30;94.60;;;;;;5034893;28;20056;-69
2021/12/09 01:44:26;;;;;;;20.30;4.00;;;6.30;94.80;;;;;;5034681;28;20041;-70
2021/12/09 01:46:54;;;;;;;17.00;4.15;;;6.30;93.90;;;;;;5050849;28;20496;-68
2021/12/09 01:49:22;;;;;;;17.17;3.33;;;6.30;94.50;;;;;;5050542;28;20110;-68
2021/12/09 01:51:49;;;;;;;13.65;2.78;;;6.40;94.10;;;;;;5050620;28;20049;-69
2021/12/09 01:54:16;;;;;;;23.55;4.90;;;6.30;94.70;;;;;;5050605;28;20130;-70
2021/12/09 01:56:43;;;;;;;18.80;3.65;;;6.40;94.40;;;;;;5042707;28;20129;-67
2021/12/09 01:59:10;;;;;;;18.48;4.22;;;6.40;93.80;;;;;;5049766;28;20097;-68
2021/12/09 02:01:37;;;;;;;14.48;3.15;;;6.40;93.60;;;;;;5032449;28;20131;-68
2021/12/09 02:04:06;;;;;;;9.48;2.95;;;6.40;93.70;;;;;;5049854;28;20059;-70
2021/12/09 02:06:33;;;;;;;14.82;2.90;;;6.40;93.40;;;;;;5051387;28;20045;-76
2021/12/09 02:09:00;;;;;;;10.18;3.42;;;6.40;93.30;;;;;;5051261;28;20049;-71
2021/12/09 02:11:27;;;;;;;13.00;3.10;;;6.40;93.80;;;;;;5050657;28;20086;-70
2021/12/09 02:13:56;;;;;;;13.70;4.57;;;6.40;93.30;;;;;;5033548;28;20045;-69
2021/12/09 02:16:24;;;;;;;16.67;4.00;;;6.40;92.50;;;;;;5049060;28;20041;-74
2021/12/09 02:18:51;;;;;;;16.17;3.58;;;6.40;93.00;;;;;;5049596;28;20103;-70
2021/12/09 02:21:20;;;;;;;11.40;2.97;;;6.40;92.60;;;;;;5049358;28;20071;-70
2021/12/09 02:23:49;;;;;;;11.00;3.30;;;6.40;92.80;;;;;;5033106;28;20377;-69
2021/12/09 02:26:19;;;;;;;12.32;3.33;;;6.40;92.20;;;;;;5048322;28;20045;-70
2021/12/09 02:28:48;;;;;;;15.90;3.22;;;6.40;92.20;;;;;;5027438;28;20053;-70
2021/12/09 02:31:15;;;;;;;17.27;3.50;;;6.40;92.40;;;;;;5049445;28;20155;-69
2021/12/09 02:33:42;;;;;;;16.00;4.28;;;6.40;92.50;;;;;;5049064;28;20120;-68
2021/12/09 02:36:09;;;;;;;12.32;3.60;;;6.40;92.40;;;;;;5049079;28;20055;-68
2021/12/09 02:38:43;;;;;;;14.82;3.65;;;6.40;92.30;;;;;;5049976;28;20396;-71
2021/12/09 02:41:15;;;;;;;12.52;3.53;;;6.40;92.20;;;;;;5048304;28;20065;-70
2021/12/09 02:43:42;;;;;;;16.13;2.95;;;6.40;92.00;;;;;;5017585;28;20496;-68
2021/12/09 02:46:09;;;;;;;11.73;3.00;;;6.40;91.70;;;;;;5049017;28;20045;-69
2021/12/09 02:48:39;;;;;;;14.80;4.00;;;6.40;91.70;;;;;;5050273;28;20045;-68
2021/12/09 02:51:06;;;;;;;12.85;2.88;;;6.40;91.80;;;;;;5050372;28;20388;-68
2021/12/09 02:53:34;;;;;;;18.13;3.58;;;6.40;92.40;;;;;;5048459;28;20067;-70
2021/12/09 02:56:01;;;;;;;14.30;3.42;;;6.40;91.50;;;;;;5049263;28;20389;-69
2021/12/09 02:58:28;;;;;;;12.20;2.95;;;6.40;91.80;;;;;;5048777;28;20159;-69
2021/12/09 03:01:12;;;;;;;12.75;3.47;;;6.30;92.10;;;;;;5050725;28;20044;-70
2021/12/09 03:03:47;;;;;;;12.20;2.58;;;6.30;91.90;;;;;;5049727;28;20477;-70
2021/12/09 03:06:14;;;;;;;15.68;4.70;;;6.20;91.70;;;;;;5049254;28;20095;-70
2021/12/09 03:08:42;;;;;;;15.88;3.95;;;6.20;91.90;;;;;;5049303;28;20061;-70
2021/12/09 03:11:11;;;;;;;9.02;3.30;;;6.10;92.30;;;;;;5050460;28;20128;-70
2021/12/09 03:13:39;;;;;;;14.90;2.70;;;6.10;92.20;;;;;;5049778;28;20508;-71
2021/12/09 03:16:06;;;;;;;11.90;3.60;;;6.00;92.40;;;;;;5049138;28;20052;-69
2021/12/09 03:18:44;;;;;;;16.67;3.50;;;6.00;92.40;;;;;;5031513;28;20507;-71
2021/12/09 03:21:18;;;;;;;8.13;2.75;;;6.00;92.30;;;;;;5031005;28;20088;-70
2021/12/09 03:23:45;;;;;;;13.73;4.03;;;6.00;92.50;;;;;;5048422;28;20133;-71
2021/12/09 03:26:13;;;;;;;14.75;3.55;;;6.00;92.50;;;;;;5050005;28;20480;-70
2021/12/09 03:28:40;;;;;;;13.18;3.30;;;6.00;92.50;;;;;;5048791;28;20055;-69
2021/12/09 03:31:07;;;;;;;15.45;4.05;;;5.90;92.80;;;;;;5048687;28;20053;-69
2021/12/09 03:33:34;;;;;;;13.65;2.72;;;5.90;92.80;;;;;;5048947;28;20049;-69
2021/12/09 03:36:05;;;;;;;15.38;5.13;;;5.80;92.80;;;;;;5050431;28;20116;-70
2021/12/09 03:38:32;;;;;;;11.80;3.38;;;5.80;93.10;;;;;;5048486;28;20124;-69
2021/12/09 03:41:00;;;;;;;23.48;5.07;;;5.80;93.20;;;;;;5049151;28;20064;-69
2021/12/09 03:43:27;;;;;;;13.68;3.55;;;5.80;92.90;;;;;;5040310;28;20492;-70
2021/12/09 03:45:55;;;;;;;16.15;3.30;;;5.70;93.60;;;;;;5048312;28;20041;-69
2021/12/09 03:48:23;;;;;;;16.75;4.53;;;5.70;93.70;;;;;;5031586;28;20147;-73
2021/12/09 03:50:51;;;;;;;16.42;4.10;;;5.70;94.20;;;;;;5050296;28;20563;-74
2021/12/09 03:53:19;;;;;;;13.68;4.10;;;5.70;94.30;;;;;;5046950;28;20052;-74
2021/12/09 03:55:46;;;;;;;17.27;5.18;;;5.70;94.60;;;;;;5047292;28;20473;-69
2021/12/09 03:58:13;;;;;;;12.00;3.92;;;5.70;94.10;;;;;;5048975;28;20095;-69
2021/12/09 04:00:40;;;;;;;11.68;3.45;;;5.70;93.60;;;;;;5047694;28;20041;-69
2021/12/09 04:03:08;;;;;;;10.57;3.63;;;5.70;94.00;;;;;;5048410;28;20412;-69
2021/12/09 04:05:36;;;;;;;11.75;3.15;;;5.70;94.00;;;;;;5048710;28;20045;-70
2021/12/09 04:08:03;;;;;;;16.83;3.85;;;5.70;94.30;;;;;;5031876;28;20045;-69
2021/12/09 04:10:31;;;;;;;13.98;3.80;;;5.70;94.30;;;;;;5048240;28;20045;-69
2021/12/09 04:12:58;;;;;;;14.38;2.97;;;5.80;94.00;;;;;;5048247;28;20124;-69
2021/12/09 04:15:26;;;;;;;15.13;5.53;;;5.70;94.00;;;;;;5049787;28;20477;-69
2021/12/09 04:17:53;;;;;;;8.80;3.17;;;5.70;94.00;;;;;;5046453;28;20059;-70
2021/12/09 04:20:21;;;;;;;11.35;3.10;;;5.70;94.50;;;;;;5047544;28;20089;-69
2021/12/09 04:22:49;;;;;;;22.13;6.20;;;5.70;94.30;;;;;;5030909;28;20124;-69
2021/12/09 04:25:17;;;;;;;12.07;2.72;;;5.70;94.90;;;;;;5048864;28;20129;-69
2021/12/09 04:27:44;;;;;;;6.45;2.72;;;5.70;94.70;;;;;;5047510;28;20047;-69
2021/12/09 04:30:12;;;;;;;8.18;2.78;;;5.60;95.10;;;;;;5030415;28;20056;-69
2021/12/09 04:32:40;;;;;;;13.90;3.50;;;5.60;94.40;;;;;;5047567;28;20507;-70
2021/12/09 04:35:08;;;;;;;12.45;2.78;;;5.60;95.10;;;;;;5052771;28;20441;-69
2021/12/09 04:37:35;;;;;;;15.02;2.97;;;5.50;95.20;;;;;;5053048;28;20041;-69
2021/12/09 04:40:04;;;;;;;9.65;2.78;;;5.50;95.30;;;;;;5052573;28;20421;-69
2021/12/09 04:42:30;;;;;;;14.95;4.28;;;5.50;95.30;;;;;;5050649;28;20060;-69
2021/12/09 04:44:57;;;;;;;16.50;3.92;;;5.40;95.20;;;;;;5052282;28;20089;-69
2021/12/09 04:47:24;;;;;;;9.45;2.88;;;5.40;95.40;;;;;;5051448;28;20045;-69
2021/12/09 04:49:52;;;;;;;16.60;3.53;;;5.50;95.70;;;;;;5051198;28;20043;-70
2021/12/09 04:52:18;;;;;;;14.73;3.65;;;5.40;95.80;;;;;;5051209;28;20045;-69
2021/12/09 04:54:46;;;;;;;22.48;5.40;;;5.40;95.80;;;;;;5052017;28;20044;-69
2021/12/09 04:57:13;;;;;;;12.95;3.78;;;5.40;96.10;;;;;;5051357;28;20455;-69
2021/12/09 04:59:40;;;;;;;9.90;2.67;;;5.40;95.50;;;;;;5053071;28;20532;-69
2021/12/09 05:02:17;;;;;;;10.95;3.47;;;5.40;95.50;;;;;;5051708;28;20060;-74
2021/12/09 05:04:44;;;;;;;15.13;2.92;;;5.40;95.90;;;;;;5043726;28;20049;-69
2021/12/09 05:07:11;;;;;;;22.73;5.15;;;5.40;96.30;;;;;;5052389;28;20455;-70
2021/12/09 05:09:41;;;;;;;14.52;3.60;;;5.40;96.00;;;;;;5050672;28;20080;-70
2021/12/09 05:12:11;;;;;;;14.75;2.78;;;5.30;96.50;;;;;;5052971;28;20045;-69
2021/12/09 05:14:38;;;;;;;11.68;2.95;;;5.30;96.30;;;;;;5051516;28;20098;-68
2021/12/09 05:17:06;;;;;;;9.95;2.75;;;5.30;96.70;;;;;;5052143;28;20045;-68
2021/12/09 05:19:33;;;;;;;17.17;3.97;;;5.30;96.70;;;;;;5051844;28;20041;-68
2021/12/09 05:21:59;;;;;;;12.30;2.85;;;5.30;96.40;;;;;;5051772;28;20084;-72
2021/12/09 05:24:27;;;;;;;18.77;4.60;;;5.30;96.90;;;;;;5049835;28;20412;-70
2021/12/09 05:26:56;;;;;;;12.13;2.83;;;5.30;96.80;;;;;;5050537;28;20565;-69
2021/12/09 05:29:28;;;;;;;10.52;3.47;;;5.20;96.80;;;;;;5051838;28;20063;-69
2021/12/09 05:32:13;;;;;;;25.88;6.13;;;5.20;97.40;;;;;;5050193;28;20482;-68
2021/12/09 05:34:42;;;;;;;11.60;2.92;;;5.10;97.30;;;;;;5047400;28;20128;-70
2021/12/09 05:37:14;;;;;;;10.45;3.70;;;5.10;97.40;;;;;;5050155;28;20079;-75
2021/12/09 05:39:41;;;;;;;12.98;3.95;;;5.10;97.30;;;;;;5051935;28;20048;-69
2021/12/09 05:42:09;;;;;;;11.35;2.78;;;5.10;97.50;;;;;;5034348;28;20037;-68
2021/12/09 05:44:36;;;;;;;12.98;4.38;;;5.10;98.20;;;;;;5049391;28;20072;-68
2021/12/09 05:47:05;;;;;;;10.82;3.70;;;5.00;97.90;;;;;;5050511;28;20045;-68
2021/12/09 05:49:37;;;;;;;8.05;2.25;;;5.00;98.00;;;;;;5050043;28;20449;-68
2021/12/09 05:52:04;;;;;;;9.90;3.15;;;5.00;98.00;;;;;;5050829;28;20049;-75
2021/12/09 05:54:31;;;;;;;8.18;2.92;;;5.00;98.00;;;;;;5053815;28;20120;-69
2021/12/09 05:56:58;;;;;;;7.63;3.15;;;5.00;98.40;;;;;;5030651;28;20064;-69
2021/12/09 05:59:25;;;;;;;14.75;4.05;;;4.90;98.20;;;;;;5043870;28;20053;-69
2021/12/09 06:01:53;;;;;;;11.52;3.67;;;4.90;98.50;;;;;;5050475;28;20049;-69
2021/12/09 06:04:21;;;;;;;14.93;4.30;;;4.90;98.50;;;;;;5053503;28;20094;-68
2021/12/09 06:06:49;;;;;;;12.02;2.97;;;4.90;98.60;;;;;;5050601;28;20533;-68
2021/12/09 06:09:16;;;;;;;14.45;3.00;;;4.80;99.90;;;;;;5051900;28;20052;-68
2021/12/09 06:11:46;;;;;;;17.55;4.53;;;4.80;99.60;;;;;;5049494;28;20061;-69
2021/12/09 06:14:13;;;;;;;13.35;2.58;;;4.80;99.10;;;;;;5051154;28;20110;-69
2021/12/09 06:16:40;;;;;;;12.80;2.97;;;4.80;99.60;;;;;;5050742;28;20057;-69
2021/12/09 06:19:08;;;;;;;9.65;2.63;;;4.70;98.70;;;;;;5051295;28;20826;-71
2021/12/09 06:21:35;;;;;;;8.23;2.45;;;4.70;99.20;;;;;;5049514;28;20076;-70
2021/12/09 06:24:02;;;;;;;15.10;3.25;;;4.70;99.30;;;;;;5048365;28;20463;-69
2021/12/09 06:26:30;;;;;;;11.40;3.25;;;4.70;99.10;;;;;;5049133;28;20443;-71
2021/12/09 06:28:57;;;;;;;12.95;2.58;;;4.70;98.80;;;;;;5030819;28;20409;-72
2021/12/09 06:31:24;;;;;;;25.40;4.80;;;4.60;99.30;;;;;;5029870;28;20104;-70
2021/12/09 06:33:51;;;;;;;14.65;2.75;;;4.60;99.00;;;;;;5032883;28;20428;-69
2021/12/09 06:36:18;;;;;;;8.48;2.80;;;4.60;99.70;;;;;;5031580;28;20133;-69
2021/12/09 06:38:46;;;;;;;16.48;3.53;;;4.60;99.70;;;;;;5050520;28;20067;-70
2021/12/09 06:41:13;;;;;;;9.77;2.78;;;4.50;99.70;;;;;;5029707;28;20485;-69
2021/12/09 06:43:40;;;;;;;13.13;3.53;;;4.50;99.80;;;;;;5047715;28;20052;-75
2021/12/09 06:46:10;;;;;;;14.43;3.00;;;4.40;99.90;;;;;;5033592;28;20056;-71
2021/12/09 06:48:37;;;;;;;161.55;86.85;;;4.40;99.90;;;;;;5049262;28;20489;-69
2021/12/09 06:51:07;;;;;;;25.42;8.32;;;4.50;99.90;;;;;;5050271;28;20037;-68
2021/12/09 06:53:34;;;;;;;;;;;4.50;99.80;;;;;;5048817;28;20049;-70
2021/12/09 06:56:03;;;;;;;10.20;3.70;;;4.40;99.80;;;;;;5046326;28;20360;-63
2021/12/09 06:58:30;;;;;;;9.77;3.65;;;4.40;99.90;;;;;;5049075;28;20465;-64
2021/12/09 07:00:59;;;;;;;13.73;3.00;;;4.40;99.90;;;;;;5046592;28;20470;-65
2021/12/09 07:03:26;;;;;;;9.45;3.55;;;4.30;99.90;;;;;;5048229;28;20053;-66
2021/12/09 07:05:56;;;;;;;11.13;4.18;;;4.30;99.90;;;;;;5046892;28;20131;-65
2021/12/09 07:08:23;;;;;;;11.30;4.97;;;4.30;99.90;;;;;;5048015;28;20045;-65
2021/12/09 07:10:51;;;;;;;16.90;4.85;;;4.30;99.90;;;;;;5048513;28;20045;-68
2021/12/09 07:13:18;;;;;;;51.33;25.13;;;4.30;99.90;;;;;;5048347;28;20051;-64
2021/12/09 07:15:45;;;;;;;114.40;64.43;;;4.30;99.90;;;;;;5030388;28;20076;-64
2021/12/09 07:18:12;;;;;;;14.35;6.28;;;4.30;99.90;;;;;;5013787;28;20076;-64
2021/12/09 07:20:39;;;;;;;14.00;3.88;;;4.30;99.90;;;;;;5047806;28;20429;-65
2021/12/09 07:23:06;;;;;;;15.32;4.43;;;4.30;99.90;;;;;;5045978;28;20220;-64
2021/12/09 07:25:35;;;;;;;17.05;4.68;;;4.20;99.90;;;;;;5029342;28;20421;-64
2021/12/09 07:28:03;;;;;;;12.73;3.15;;;4.20;99.90;;;;;;5030203;28;20048;-64
2021/12/09 07:30:29;;;;;;;11.60;2.63;;;4.20;99.90;;;;;;5045848;28;20052;-71
2021/12/09 07:32:57;;;;;;;16.90;4.30;;;4.20;99.90;;;;;;5046825;28;20051;-70
2021/12/09 07:35:30;;;;;;;13.77;4.35;;;4.20;99.90;;;;;;5046640;28;20523;-68
2021/12/09 07:37:58;;;;;;;9.77;3.20;;;4.20;99.90;;;;;;5046338;28;20057;-68
2021/12/09 07:40:25;;;;;;;19.85;3.05;;;4.20;99.90;;;;;;5048186;28;20132;-69
2021/12/09 07:42:52;;;;;;;19.48;3.40;;;4.20;99.90;;;;;;5047259;28;20128;-68
2021/12/09 07:45:19;;;;;;;17.27;3.47;;;4.20;99.90;;;;;;5042493;28;20049;-68
2021/12/09 07:47:47;;;;;;;21.73;4.97;;;4.20;99.90;;;;;;5051210;28;20127;-68
2021/12/09 07:50:16;;;;;;;12.10;3.83;;;4.30;99.90;;;;;;5042712;28;20053;-68
2021/12/09 07:52:44;;;;;;;13.30;4.75;;;4.20;99.90;;;;;;5034331;28;20057;-67
2021/12/09 07:55:11;;;;;;;13.98;3.83;;;4.20;99.90;;;;;;5048262;28;20052;-67
2021/12/09 07:57:39;;;;;;;14.32;3.30;;;4.20;99.90;;;;;;5046867;28;20145;-67
2021/12/09 08:00:21;;;;;;;9.60;2.53;;;4.30;99.90;;;;;;5011472;28;20053;-68
2021/12/09 08:02:49;;;;;;;15.07;4.03;;;4.30;99.90;;;;;;5042160;28;20560;-69
2021/12/09 08:05:16;;;;;;;15.32;3.88;;;4.30;99.90;;;;;;5046878;28;20105;-68
2021/12/09 08:07:43;;;;;;;16.60;5.80;;;4.30;99.90;;;;;;5046379;28;20063;-68
2021/12/09 08:10:12;;;;;;;9.48;3.35;;;4.40;99.90;;;;;;5045162;28;20500;-69
2021/12/09 08:12:39;;;;;;;17.25;3.45;;;4.40;99.90;;;;;;5045280;28;20049;-70
2021/12/09 08:15:23;;;;;;;10.18;3.50;;;4.50;99.90;;;;;;5032278;28;20051;-70
2021/12/09 08:20:27;;;;;;;17.13;3.50;;;4.50;99.90;;;;;;5046044;28;20102;-72
2021/12/09 08:22:54;;;;;;;16.10;3.72;;;4.50;99.90;;;;;;5046034;28;20124;-71
2021/12/09 08:25:21;;;;;;;8.30;3.10;;;4.50;99.90;;;;;;5045784;28;20060;-67
2021/12/09 08:27:49;;;;;;;13.02;3.05;;;4.50;99.90;;;;;;5045590;28;20616;-69
2021/12/09 08:30:21;;;;;;;10.07;2.60;;;4.50;99.90;;;;;;5035014;28;20458;-68
2021/12/09 08:33:08;;;;;;;;;;;4.60;99.90;;;;;;5059607;28;20072;-70
2021/12/09 08:35:36;;;;;;;13.55;2.83;;;4.60;99.90;;;;;;5026314;28;19931;-69
2021/12/09 08:38:04;;;;;;;13.13;3.55;;;4.60;99.90;;;;;;5046878;28;20127;-69
2021/12/09 08:40:31;;;;;;;17.55;3.60;;;4.60;99.90;;;;;;5048552;28;20049;-67
2021/12/09 08:42:58;;;;;;;10.13;3.08;;;4.60;99.90;;;;;;5046887;28;20124;-65
2021/12/09 08:45:25;;;;;;;13.75;3.30;;;4.60;99.90;;;;;;5026026;28;20073;-65
2021/12/09 08:47:52;;;;;;;104.40;61.70;;;4.70;99.90;;;;;;5040887;28;20059;-68
2021/12/09 08:50:23;;;;;;;31.83;17.65;;;4.80;99.90;;;;;;5044569;28;20113;-66
2021/12/09 08:52:51;;;;;;;11.73;4.47;;;5.00;99.70;;;;;;5045208;28;20676;-67
2021/12/09 08:55:21;;;;;;;12.43;3.00;;;5.00;99.30;;;;;;5029312;28;20060;-68
2021/12/09 08:57:49;;;;;;;13.88;3.10;;;5.00;99.40;;;;;;5029529;28;20290;-68
2021/12/09 09:00:16;;;;;;;12.23;2.97;;;5.00;99.40;;;;;;5028206;28;20049;-69
2021/12/09 09:02:46;;;;;;;17.73;3.10;;;5.00;99.40;;;;;;5005886;28;20045;-70
2021/12/09 09:05:13;;;;;;;11.43;3.53;;;5.00;99.50;;;;;;5044555;28;20065;-70
2021/12/09 09:07:44;;;;;;;15.02;3.30;;;5.00;99.60;;;;;;5026053;28;20117;-68
2021/12/09 09:10:12;;;;;;;15.15;4.28;;;5.10;98.90;;;;;;5043434;28;20414;-69
2021/12/09 09:12:39;;;;;;;11.77;3.42;;;5.10;99.20;;;;;;5045770;28;20068;-71
2021/12/09 09:15:07;;;;;;;11.32;2.80;;;5.10;99.00;;;;;;5026511;28;20048;-72
2021/12/09 09:17:35;;;;;;;14.50;3.08;;;5.10;98.80;;;;;;5031735;28;20098;-72
2021/12/09 09:20:04;;;;;;;10.27;3.42;;;5.20;99.00;;;;;;5049426;28;20053;-70
2021/12/09 09:22:31;;;;;;;15.18;3.20;;;5.30;99.80;;;;;;5049530;28;20064;-73
2021/12/09 09:24:58;;;;;;;12.93;3.10;;;5.30;98.60;;;;;;5052169;28;20520;-67
2021/12/09 09:27:25;;;;;;;22.02;5.50;;;5.30;98.40;;;;;;5035658;28;20056;-66
2021/12/09 09:29:53;;;;;;;14.82;3.92;;;5.30;98.40;;;;;;5051604;28;20065;-69
2021/12/09 09:32:20;;;;;;;13.27;3.00;;;5.30;98.70;;;;;;5046899;28;20520;-67
2021/12/09 09:34:47;;;;;;;12.32;3.55;;;5.40;98.70;;;;;;5050884;28;20688;-71
2021/12/09 09:37:14;;;;;;;8.55;3.53;;;5.40;98.70;;;;;;5028526;28;20053;-71
2021/12/09 09:39:44;;;;;;;19.13;3.53;;;5.40;98.40;;;;;;5035660;28;20438;-71
2021/12/09 09:44:47;;;;;;;;;;;5.40;98.80;;;;;;5052702;28;20512;-71
2021/12/09 09:47:17;;;;;;;15.30;4.00;;;5.40;98.60;;;;;;5032196;28;20334;-71
2021/12/09 09:49:45;;;;;;;9.50;2.85;;;5.50;98.60;;;;;;5052273;28;20571;-71
2021/12/09 09:52:21;;;;;;;14.05;4.05;;;5.50;98.80;;;;;;5052921;28;20229;-70
2021/12/09 09:55:00;;;;;;;15.82;3.30;;;5.50;98.80;;;;;;5051457;28;20160;-71
2021/12/09 09:57:27;;;;;;;13.00;4.03;;;5.50;98.60;;;;;;5018383;28;20128;-72
2021/12/09 09:59:54;;;;;;;19.48;4.32;;;5.50;98.60;;;;;;5047656;28;20140;-71
2021/12/09 10:02:21;;;;;;;15.30;3.78;;;5.50;98.40;;;;;;5047598;28;20512;-70
2021/12/09 10:04:57;;;;;;;6.97;2.78;;;5.50;98.60;;;;;;5031313;28;20053;-71
2021/12/09 10:07:24;;;;;;;16.77;3.22;;;5.50;98.20;;;;;;5031211;28;20080;-70
2021/12/09 10:09:54;;;;;;;10.30;3.38;;;5.50;98.30;;;;;;5047297;28;20099;-71
2021/12/09 10:12:21;;;;;;;19.05;3.97;;;5.50;98.10;;;;;;5032207;28;20233;-70
2021/12/09 10:14:50;;;;;;;12.30;3.38;;;5.60;98.20;;;;;;5030950;28;20093;-71
2021/12/09 10:17:44;;;;;;;22.90;4.20;;;5.60;98.30;;;;;;5031114;28;20049;-70
2021/12/09 10:20:11;;;;;;;9.52;3.53;;;5.60;98.60;;;;;;5030908;28;20480;-70
2021/12/09 10:22:38;;;;;;;8.80;2.70;;;5.60;98.70;;;;;;5030887;28;20081;-70
2021/12/09 10:25:20;;;;;;;15.70;3.40;;;5.60;98.30;;;;;;5049817;28;20128;-70
2021/12/09 10:27:57;;;;;;;12.90;3.38;;;5.70;98.20;;;;;;5050115;28;20510;-70
2021/12/09 10:30:24;;;;;;;12.73;3.63;;;5.80;97.90;;;;;;5034643;28;20099;-69
2021/12/09 10:32:58;;;;;;;12.50;3.17;;;5.80;97.70;;;;;;5051476;28;20421;-70
2021/12/09 10:35:25;;;;;;;9.98;4.15;;;5.90;98.60;;;;;;5034064;28;20139;-70
2021/12/09 10:37:54;;;;;;;14.30;3.00;;;5.90;97.90;;;;;;5050833;28;20071;-70
2021/12/09 10:40:29;;;;;;;13.18;2.88;;;6.00;97.60;;;;;;5033512;28;20049;-70
2021/12/09 10:42:58;;;;;;;9.68;2.90;;;6.00;97.70;;;;;;5050427;28;20060;-70
2021/12/09 10:45:30;;;;;;;10.50;3.33;;;6.10;96.90;;;;;;5051492;28;20045;-70
2021/12/09 10:51:12;;;;;;;10.70;3.75;;;6.20;96.70;;;;;;5049988;28;20147;-70
2021/12/09 10:53:51;;;;;;;9.75;2.58;;;6.30;96.50;;;;;;5036658;28;20053;-69
2021/12/09 10:56:26;;;;;;;13.80;3.50;;;6.30;96.20;;;;;;5050998;28;20171;-69
2021/12/09 10:58:53;;;;;;;17.17;3.10;;;6.40;95.30;;;;;;5050134;28;20151;-69
2021/12/09 11:01:23;;;;;;;15.95;3.40;;;6.40;96.00;;;;;;5051235;28;20132;-70
2021/12/09 11:03:54;;;;;;;12.20;4.00;;;6.40;95.90;;;;;;5049845;28;20045;-69
2021/12/09 11:06:37;;;;;;;16.02;3.22;;;6.40;95.90;;;;;;5050037;28;20511;-70
2021/12/09 11:09:08;;;;;;;13.77;3.92;;;6.50;94.90;;;;;;5034174;28;20541;-70
2021/12/09 11:11:37;;;;;;;14.52;3.58;;;6.40;95.30;;;;;;5050654;28;20055;-69
2021/12/09 11:14:09;;;;;;;9.50;3.03;;;6.40;95.30;;;;;;5052105;28;20045;-70
2021/12/09 11:16:39;;;;;;;16.20;3.33;;;6.40;95.70;;;;;;5050619;28;20053;-69
2021/12/09 11:19:15;;;;;;;9.77;2.92;;;6.40;95.20;;;;;;5033542;28;20202;-69
2021/12/09 11:21:46;;;;;;;14.63;3.53;;;6.40;95.10;;;;;;5051338;28;20326;-69
2021/12/09 11:24:15;;;;;;;11.73;3.33;;;6.40;95.60;;;;;;5030113;28;20096;-69
2021/12/09 11:26:57;;;;;;;;;;;6.40;95.50;;;;;;5013833;28;20107;-70
2021/12/09 11:29:32;;;;;;;16.15;4.10;;;6.40;95.80;;;;;;5044685;28;20123;-70
2021/12/09 11:32:10;;;;;;;11.02;2.90;;;6.40;94.60;;;;;;5031062;28;20088;-68
2021/12/09 11:35:11;;;;;;;12.13;3.50;;;6.40;95.50;;;;;;5041526;28;20041;-71
2021/12/09 11:37:43;;;;;;;45.05;27.08;;;6.50;95.60;;;;;;5048373;28;20521;-60
2021/12/09 11:40:36;;;;;;;100.25;68.43;;;6.50;95.80;;;;;;5047947;28;20098;-69
2021/12/09 11:43:04;;;;;;;19.52;9.20;;;6.60;95.80;;;;;;5047427;28;20125;-69
2021/12/09 11:45:34;;;;;;;16.27;4.80;;;6.70;94.90;;;;;;5045057;28;20074;-74
2021/12/09 11:48:03;;;;;;;194.00;144.23;;;6.70;95.50;;;;;;5025103;28;20049;-70
2021/12/09 11:50:34;;;;;;;16.60;8.45;;;6.70;95.50;;;;;;5049472;28;20037;-78
2021/12/09 11:53:05;;;;;;;15.82;4.47;;;6.80;94.40;;;;;;5046670;28;20484;-75
2021/12/09 11:55:37;;;;;;;14.05;4.07;;;6.80;93.50;;;;;;5046252;28;20070;-72
2021/12/09 11:58:20;;;;;;;9.13;3.80;;;6.90;93.40;;;;;;5048146;28;20424;-79
2021/12/09 12:12:32;;;;;;;10.48;3.67;;;7.10;92.80;;;;;;5064477;28;20055;-71
2021/12/09 12:18:32;;;;;;;12.43;3.40;;;7.20;92.70;;;;;;5049097;28;20084;-72
2021/12/09 12:38:03;;;;;;;14.18;3.35;;;7.60;91.60;;;;;;5048736;28;20143;-68
2021/12/09 12:40:55;;;;;;;;;;;7.60;91.40;;;;;;5041074;28;20041;-70
2021/12/09 12:43:27;;;;;;;14.55;3.88;;;7.60;91.20;;;;;;5048064;28;19925;-70
2021/12/09 12:46:07;;;;;;;12.10;3.47;;;7.60;92.00;;;;;;5047884;28;20049;-71
2021/12/09 12:53:54;;;;;;;10.20;3.00;;;7.60;90.50;;;;;;5048559;28;20049;-69
2021/12/09 12:56:32;;;;;;;12.48;3.08;;;7.60;91.30;;;;;;5053364;28;20518;-69
2021/12/09 12:59:16;;;;;;;17.85;4.78;;;7.60;91.20;;;;;;5036183;28;20323;-70
2021/12/09 13:01:59;;;;;;;10.55;4.00;;;7.60;90.70;;;;;;5048891;28;20095;-69
2021/12/09 13:04:54;;;;;;;18.13;2.75;;;7.60;90.70;;;;;;5052604;28;20084;-71
2021/12/09 13:08:28;;;;;;;7.63;2.88;;;7.60;91.00;;;;;;5052741;28;20468;-69
2021/12/09 13:13:12;;;;;;;8.65;2.75;;;7.70;90.20;;;;;;5052564;28;20120;-68
2021/12/09 13:15:59;;;;;;;52.75;28.63;;;7.80;90.80;;;;;;5053637;28;20060;-70
2021/12/09 13:19:06;;;;;;;20.88;10.88;;;7.80;88.40;;;;;;5050520;28;20099;-76
2021/12/09 13:21:42;;;;;;;17.13;5.00;;;7.80;89.50;;;;;;5053057;28;20053;-69
2021/12/09 13:32:59;;;;;;;14.07;3.05;;;7.90;88.80;;;;;;5051939;28;20053;-68
2021/12/09 13:45:52;;;;;;;8.63;3.35;;;8.00;89.60;;;;;;5038107;28;20041;-69
2021/12/09 13:46:36;;;;;;;9.83;3.43;;;8.00;88.50;;;;;;5052616;28;20126;-71
2021/12/09 13:54:57;;;;;;;11.95;3.65;;;8.10;89.90;;;;;;5051518;28;20136;-68
2021/12/09 13:57:51;;;;;;;16.00;4.57;;;8.00;89.60;;;;;;5040659;28;20050;-69
2021/12/09 14:00:24;;;;;;;140.75;102.55;;;8.00;88.00;;;;;;5034765;28;20391;-69
2021/12/09 14:02:54;;;;;;;229.85;178.80;;;8.00;90.00;;;;;;5051329;28;20055;-70
2021/12/09 14:05:21;;;;;;;22.83;10.37;;;8.00;89.80;;;;;;5050120;28;20049;-68
2021/12/09 14:07:58;;;;;;;19.83;6.38;;;8.00;87.40;;;;;;5034395;28;20678;-68
2021/12/09 14:10:28;;;;;;;332.95;240.88;;;8.00;88.40;;;;;;5035595;28;20056;-73
2021/12/09 14:13:06;;;;;;;79.70;50.88;;;8.00;88.40;;;;;;5030826;28;20124;-72
2021/12/09 14:15:41;;;;;;;18.55;9.82;;;8.00;88.50;;;;;;5031074;28;20054;-72
2021/12/09 14:18:16;;;;;;;16.98;7.28;;;8.00;89.70;;;;;;5034648;28;20357;-67